| time (UTC) | temp C | wind direction | speed KPH | gust KPH | rain 1hr cm | rain 24hr cm | rain mn cm | humidity % | barometer mb |
| 20260906075957 | 20 | 42 | 3.2 | 6.4 | 0.00 | 0.13 | 0.00 | 88 | 1015.1 |
| 20260906074457 | 20 | 305 | 3.2 | 8.0 | 0.00 | 0.13 | 0.00 | 90 | 1015.2 |
| 20260906072959 | 20 | 5 | 3.2 | 8.0 | 0.00 | 0.13 | 0.00 | 91 | 1015.1 |
| 20260906071459 | 20 | 141 | 3.2 | 8.0 | 0.00 | 0.13 | 0.00 | 92 | 1014.9 |
| 20260906065958 | 21 | 136 | 1.6 | 9.7 | 0.00 | 0.13 | 0.00 | 92 | 1015.0 |
| 20260906064458 | 21 | 73 | 1.6 | 6.4 | 0.00 | 0.13 | 0.00 | 92 | 1015.0 |
| 20260906061500 | 22 | 5 | 3.2 | 16.1 | 0.00 | 0.13 | 0.00 | 92 | 1015.2 |
| 20260906055958 | 22 | 38 | 3.2 | 8.0 | 0.00 | 0.13 | 0.00 | 92 | 1015.1 |
| 20260906052959 | 22 | 36 | 3.2 | 8.0 | 0.00 | 0.13 | 0.00 | 94 | 1014.8 |
| 20260906044459 | 22 | 30 | 3.2 | 8.0 | 0.00 | 0.13 | 0.00 | 94 | 1014.4 |
| 20260906043000 | 22 | 13 | 0.0 | 4.8 | 0.00 | 0.13 | 0.00 | 94 | 1014.2 |
| 20260906041500 | 22 | 5 | 0.0 | 0.0 | 0.00 | 0.13 | 0.00 | 95 | 1014.1 |
| 20260906040004 | 22 | 12 | 0.0 | 0.0 | 0.00 | 0.13 | 0.00 | 94 | 1014.0 |
| 20260906031501 | 22 | 5 | 0.0 | 0.0 | 0.00 | 0.13 | 0.13 | 95 | 1014.1 |
| 20260906030000 | 22 | 5 | 0.0 | 0.0 | 0.00 | 0.13 | 0.13 | 95 | 1014.2 |
| 20260906024459 | 22 | 5 | 0.0 | 0.0 | 0.00 | 0.13 | 0.13 | 94 | 1014.1 |
| 20260906023000 | 22 | 5 | 0.0 | 0.0 | 0.00 | 0.13 | 0.13 | 94 | 1014.4 |
| 20260906021459 | 22 | 5 | 0.0 | 0.0 | 0.00 | 0.13 | 0.13 | 93 | 1014.2 |
| 20260906020001 | 22 | 5 | 0.0 | 0.0 | 0.00 | 0.13 | 0.13 | 92 | 1014.0 |
| 20260906014501 | 23 | 5 | 0.0 | 0.0 | 0.00 | 0.13 | 0.13 | 90 | 1013.8 |
| 20260906011500 | 23 | 5 | 0.0 | 0.0 | 0.00 | 0.13 | 0.13 | 89 | 1013.5 |
| 20260906010000 | 23 | 5 | 0.0 | 0.0 | 0.00 | 0.13 | 0.13 | 88 | 1013.4 |
| 20260906004500 | 24 | 11 | 0.0 | 0.0 | 0.00 | 0.13 | 0.13 | 86 | 1013.1 |
| 20260906003000 | 25 | 25 | 0.0 | 3.2 | 0.00 | 0.13 | 0.13 | 85 | 1012.8 |
| 20260906001500 | 25 | 25 | 3.2 | 8.0 | 0.00 | 0.13 | 0.13 | 83 | 1012.6 |
| 20260906000001 | 26 | 75 | 4.8 | 12.9 | 0.00 | 0.13 | 0.13 | 81 | 1012.6 |
| 20260905234459 | 26 | 360 | 4.8 | 16.1 | 0.00 | 0.13 | 0.13 | 79 | 1012.8 |
| 20260905232959 | 27 | 16 | 6.4 | 24.1 | 0.00 | 0.13 | 0.13 | 79 | 1012.8 |
| 20260905230001 | 28 | 13 | 0.0 | 0.0 | 0.00 | 0.13 | 0.13 | 83 | 1012.2 |
| 20260905224500 | 28 | 13 | 1.6 | 4.8 | 0.00 | 0.13 | 0.13 | 82 | 1012.2 |
| 20260905223000 | 29 | 13 | 1.6 | 3.2 | 0.00 | 0.13 | 0.13 | 78 | 1012.0 |
| 20260905221501 | 31 | 36 | 1.6 | 4.8 | 0.00 | 0.13 | 0.13 | 73 | 1011.9 |
| 20260905215959 | 32 | 292 | 1.6 | 4.8 | 0.00 | 0.13 | 0.13 | 65 | 1011.5 |
| 20260905214458 | 32 | 326 | 3.2 | 6.4 | 0.00 | 0.13 | 0.13 | 61 | 1012.0 |
| 20260905205959 | 33 | 5 | 4.8 | 9.7 | 0.00 | 1.19 | 0.13 | 60 | 1012.3 |
| 20260905204459 | 33 | 28 | 4.8 | 12.9 | 0.00 | 1.19 | 0.13 | 60 | 1012.3 |
| 20260905202958 | 32 | 321 | 6.4 | 12.9 | 0.00 | 1.19 | 0.13 | 61 | 1012.4 |
| 20260905201458 | 32 | 346 | 6.4 | 16.1 | 0.00 | 1.19 | 0.13 | 60 | 1012.6 |
| 20260905200001 | 32 | 225 | 6.4 | 12.9 | 0.00 | 1.19 | 0.13 | 62 | 1012.7 |
| 20260905194500 | 32 | 302 | 4.8 | 9.7 | 0.00 | 1.19 | 0.13 | 59 | 1013.1 |
| 20260905193000 | 32 | 288 | 6.4 | 14.5 | 0.00 | 1.19 | 0.13 | 60 | 1013.3 |
| 20260905191501 | 32 | 217 | 4.8 | 14.5 | 0.00 | 1.19 | 0.13 | 58 | 1013.4 |
| 20260905182959 | 31 | 298 | 8.0 | 16.1 | 0.00 | 1.19 | 0.13 | 61 | 1014.0 |
| 20260905180001 | 30 | 300 | 6.4 | 14.5 | 0.00 | 1.19 | 0.13 | 63 | 1014.0 |
| 20260905174459 | 31 | 204 | 4.8 | 17.7 | 0.00 | 1.19 | 0.13 | 61 | 1014.1 |
| 20260905172959 | 30 | 233 | 4.8 | 16.1 | 0.00 | 1.19 | 0.13 | 62 | 1014.1 |
| 20260905170000 | 28 | 284 | 4.8 | 11.3 | 0.00 | 1.19 | 0.13 | 66 | 1014.7 |
| 20260905164500 | 28 | 295 | 6.4 | 12.9 | 0.00 | 1.19 | 0.13 | 64 | 1015.0 |
| 20260905162959 | 28 | 263 | 4.8 | 11.3 | 0.00 | 1.19 | 0.13 | 66 | 1015.1 |
| 20260905161500 | 28 | 221 | 4.8 | 11.3 | 0.00 | 1.19 | 0.13 | 64 | 1015.5 |
| 20260905155959 | 28 | 263 | 3.2 | 6.4 | 0.00 | 1.19 | 0.13 | 65 | 1015.4 |
| 20260905154458 | 27 | 246 | 4.8 | 9.7 | 0.00 | 1.19 | 0.13 | 66 | 1015.3 |
| 20260905152958 | 27 | 200 | 4.8 | 14.5 | 0.00 | 1.19 | 0.13 | 68 | 1015.0 |
| 20260905151458 | 26 | 172 | 6.4 | 14.5 | 0.00 | 1.19 | 0.13 | 70 | 1014.9 |
| 20260905144459 | 25 | 231 | 6.4 | 12.9 | 0.00 | 1.19 | 0.13 | 75 | 1015.3 |
| 20260905141459 | 24 | 202 | 3.2 | 9.7 | 0.00 | 1.19 | 0.13 | 80 | 1015.3 |
| 20260905140000 | 23 | 248 | 6.4 | 16.1 | 0.00 | 1.19 | 0.13 | 80 | 1015.4 |
| 20260905133000 | 23 | 155 | 4.8 | 11.3 | 0.00 | 1.19 | 0.13 | 84 | 1016.3 |
| 20260905131500 | 22 | 202 | 1.6 | 6.4 | 0.00 | 1.19 | 0.13 | 88 | 1016.4 |
| 20260905125958 | 21 | 294 | 0.0 | 3.2 | 0.00 | 1.19 | 0.13 | 92 | 1016.3 |
| 20260905124459 | 21 | 250 | 0.0 | 6.4 | 0.00 | 1.19 | 0.13 | 93 | 1016.1 |
| 20260905122958 | 20 | 262 | 0.0 | 4.8 | 0.00 | 1.19 | 0.13 | 95 | 1016.1 |
| 20260905120000 | 20 | 166 | 0.0 | 0.0 | 0.00 | 1.19 | 0.13 | 94 | 1016.3 |
| 20260905112959 | 20 | 315 | 0.0 | 0.0 | 0.00 | 1.19 | 0.13 | 94 | 1016.7 |
| 20260905111500 | 20 | 315 | 0.0 | 0.0 | 0.13 | 1.19 | 0.13 | 93 | 1016.4 |
| 20260905110000 | 20 | 40 | 3.2 | 8.0 | 0.13 | 1.19 | 0.13 | 90 | 1016.3 |
| 20260905104459 | 20 | 123 | 1.6 | 12.9 | 0.13 | 1.19 | 0.13 | 90 | 1016.2 |
| 20260905102958 | 21 | 323 | 4.8 | 12.9 | 0.13 | 1.19 | 0.13 | 88 | 1016.3 |
| 20260905095958 | 21 | 5 | 11.3 | 27.4 | 0.00 | 1.07 | 0.00 | 97 | 1016.3 |
| 20260905094458 | 21 | 12 | 0.0 | 0.0 | 0.00 | 1.07 | 0.00 | 98 | 1014.5 |
| 20260905092958 | 21 | 12 | 0.0 | 0.0 | 0.00 | 1.07 | 0.00 | 98 | 1014.2 |
| 20260905091458 | 21 | 12 | 0.0 | 0.0 | 0.00 | 1.07 | 0.00 | 98 | 1014.2 |
| 20260905085958 | 21 | 12 | 0.0 | 0.0 | 0.00 | 1.07 | 0.00 | 98 | 1014.3 |
| 20260905084458 | 21 | 12 | 0.0 | 0.0 | 0.00 | 1.07 | 0.00 | 98 | 1014.3 |
| 20260905082957 | 21 | 12 | 0.0 | 0.0 | 0.00 | 1.07 | 0.00 | 98 | 1014.1 |
| 20260905081458 | 21 | 12 | 0.0 | 0.0 | 0.00 | 1.07 | 0.00 | 98 | 1014.1 |